Time;durP1;ratioP1;P1;durP2;ratioP2;P2;SDS_P1;SDS_P2;PMS_P1;PMS_P2;Temp;Humidity;BMP_temperature;BMP_pressure;BME280_temperature;BME280_humidity;BME280_pressure;Samples;Min_cycle;Max_cycle;Signal;HPM_P1;HPM_P2
2022/01/20 00:02:25;;;;;;;7.82;4.70;;;;;;;;;;5048948;28;20490;-72
2022/01/20 00:05:05;;;;;;;6.32;3.97;;;;;;;;;;5048440;28;20041;-73
2022/01/20 00:26:25;;;;;;;7.85;4.28;;;;;;;;;;5050034;28;20048;-73
2022/01/20 00:28:55;;;;;;;8.98;4.55;;;;;;;;;;5047512;28;20044;-73
2022/01/20 00:33:56;;;;;;;7.85;4.65;;;;;;;;;;5050809;28;20124;-73
2022/01/20 00:39:07;;;;;;;8.93;5.25;;;;;;;;;;5046391;28;20033;-73
2022/01/20 00:41:33;;;;;;;7.95;4.50;;;;;;;;;;5044870;28;20076;-73
2022/01/20 00:43:59;;;;;;;8.10;5.10;;;;;;;;;;5046646;28;20103;-73
2022/01/20 00:46:28;;;;;;;7.72;4.80;;;;;;;;;;5046472;28;20394;-73
2022/01/20 00:48:54;;;;;;;8.10;4.88;;;;;;;;;;5047054;28;20064;-72
2022/01/20 00:51:22;;;;;;;10.55;5.90;;;;;;;;;;5047611;28;20052;-73
2022/01/20 00:53:51;;;;;;;8.00;5.25;;;;;;;;;;5047507;28;20657;-73
2022/01/20 00:56:17;;;;;;;9.75;5.00;;;;;;;;;;5048316;28;20040;-73
2022/01/20 00:58:43;;;;;;;8.00;4.82;;;;;;;;;;5048224;28;20053;-73
2022/01/20 01:01:09;;;;;;;8.05;4.85;;;;;;;;;;5047923;28;20079;-73
2022/01/20 01:03:35;;;;;;;8.13;4.65;;;;;;;;;;5047904;28;20045;-72
2022/01/20 01:08:45;;;;;;;8.50;4.72;;;;;;;;;;5048655;28;20788;-73
2022/01/20 01:11:11;;;;;;;7.68;4.60;;;;;;;;;;5047781;28;20239;-72
2022/01/20 01:13:37;;;;;;;7.60;3.90;;;;;;;;;;5048245;28;20490;-72
2022/01/20 01:16:06;;;;;;;7.70;3.95;;;;;;;;;;5047227;28;20043;-73
2022/01/20 01:21:30;;;;;;;8.00;3.88;;;;;;;;;;5049847;28;20045;-73
2022/01/20 01:23:56;;;;;;;7.13;3.47;;;;;;;;;;5047361;28;20063;-73
2022/01/20 01:26:26;;;;;;;6.63;3.47;;;;;;;;;;5047666;28;20064;-73
2022/01/20 01:28:53;;;;;;;10.00;3.78;;;;;;;;;;5047346;28;20059;-73
2022/01/20 01:33:57;;;;;;;8.25;3.65;;;;;;;;;;5049155;28;20044;-73
2022/01/20 01:36:27;;;;;;;8.27;3.97;;;;;;;;;;5046948;28;20044;-73
2022/01/20 01:38:53;;;;;;;8.90;3.50;;;;;;;;;;5046259;28;20067;-73
2022/01/20 01:41:30;;;;;;;9.07;3.75;;;;;;;;;;5047138;28;20045;-73
2022/01/20 01:43:57;;;;;;;6.93;3.33;;;;;;;;;;5047014;28;20652;-73
2022/01/20 01:46:24;;;;;;;10.18;3.70;;;;;;;;;;5047308;28;20051;-73
2022/01/20 01:48:50;;;;;;;8.95;3.50;;;;;;;;;;5046504;28;20071;-73
2022/01/20 01:51:16;;;;;;;7.47;3.45;;;;;;;;;;5046704;28;20453;-74
2022/01/20 01:53:42;;;;;;;8.27;3.70;;;;;;;;;;5045389;28;20429;-73
2022/01/20 01:56:09;;;;;;;9.82;3.55;;;;;;;;;;5046139;28;20048;-72
2022/01/20 01:58:35;;;;;;;6.85;3.42;;;;;;;;;;5046900;28;20063;-73
2022/01/20 02:01:01;;;;;;;12.07;3.92;;;;;;;;;;5046622;28;20056;-72
2022/01/20 02:03:29;;;;;;;9.88;3.60;;;;;;;;;;5046055;28;20045;-72
2022/01/20 02:06:18;;;;;;;13.25;4.78;;;;;;;;;;5045948;28;20044;-72
2022/01/20 02:19:55;;;;;;;10.02;4.38;;;;;;;;;;5004427;28;20037;-72
2022/01/20 02:22:25;;;;;;;10.90;3.65;;;;;;;;;;5028162;28;20561;-72
2022/01/20 02:24:51;;;;;;;7.97;4.30;;;;;;;;;;5045157;28;20068;-72
2022/01/20 02:27:17;;;;;;;12.15;4.18;;;;;;;;;;5045118;28;20040;-72
2022/01/20 02:29:46;;;;;;;9.00;4.15;;;;;;;;;;5027214;28;20103;-73
2022/01/20 02:32:12;;;;;;;14.02;4.35;;;;;;;;;;5045240;28;20041;-73
2022/01/20 02:34:38;;;;;;;10.63;4.50;;;;;;;;;;5044581;28;20064;-73
2022/01/20 02:37:09;;;;;;;11.88;4.50;;;;;;;;;;5045386;28;20045;-73
2022/01/20 02:44:56;;;;;;;17.30;4.78;;;;;;;;;;5042314;28;20052;-73
2022/01/20 02:47:25;;;;;;;13.68;4.28;;;;;;;;;;5025958;28;20041;-73
2022/01/20 02:49:52;;;;;;;11.35;3.78;;;;;;;;;;5044205;28;20335;-73
2022/01/20 02:52:19;;;;;;;11.82;4.47;;;;;;;;;;5044117;28;20052;-73
2022/01/20 02:54:45;;;;;;;14.88;4.50;;;;;;;;;;5043547;28;20044;-73
2022/01/20 02:57:11;;;;;;;11.98;4.00;;;;;;;;;;5044556;28;20048;-73
2022/01/20 02:59:38;;;;;;;16.52;4.07;;;;;;;;;;5045633;28;20053;-73
2022/01/20 03:02:06;;;;;;;9.02;4.43;;;;;;;;;;5045663;28;20041;-73
2022/01/20 03:04:32;;;;;;;16.35;4.50;;;;;;;;;;5045402;28;20067;-73
2022/01/20 03:06:59;;;;;;;20.00;4.68;;;;;;;;;;5048098;28;20068;-73
2022/01/20 03:09:25;;;;;;;17.38;4.13;;;;;;;;;;5049099;28;20059;-73
2022/01/20 03:11:51;;;;;;;13.63;3.90;;;;;;;;;;5046173;28;20544;-73
2022/01/20 03:14:18;;;;;;;13.25;3.70;;;;;;;;;;5049144;28;20521;-73
2022/01/20 03:16:45;;;;;;;16.75;4.03;;;;;;;;;;5049093;28;20047;-73
2022/01/20 03:19:14;;;;;;;14.13;3.58;;;;;;;;;;5048818;28;20041;-73
2022/01/20 03:21:41;;;;;;;15.82;3.38;;;;;;;;;;5040379;28;20471;-72
2022/01/20 03:24:08;;;;;;;14.90;3.88;;;;;;;;;;5028560;28;20049;-73
2022/01/20 03:26:34;;;;;;;15.52;3.58;;;;;;;;;;5029391;28;20041;-73
2022/01/20 03:29:00;;;;;;;10.13;3.60;;;;;;;;;;5028308;28;20060;-73
2022/01/20 03:31:27;;;;;;;14.00;3.80;;;;;;;;;;5036211;28;20493;-73
2022/01/20 03:33:53;;;;;;;17.35;3.47;;;;;;;;;;5049272;28;20045;-73
2022/01/20 03:36:19;;;;;;;10.27;3.63;;;;;;;;;;5048554;28;20044;-73
2022/01/20 03:38:45;;;;;;;17.48;4.13;;;;;;;;;;5048677;28;20080;-73
2022/01/20 03:41:12;;;;;;;16.95;3.80;;;;;;;;;;5049121;28;20048;-73
2022/01/20 03:43:37;;;;;;;14.93;4.25;;;;;;;;;;5030678;28;20067;-73
2022/01/20 03:46:09;;;;;;;17.50;4.72;;;;;;;;;;5048244;28;20379;-73
2022/01/20 03:48:38;;;;;;;14.20;3.75;;;;;;;;;;5047722;28;20387;-73
2022/01/20 03:51:05;;;;;;;16.40;4.60;;;;;;;;;;5048096;28;20064;-73
2022/01/20 03:53:35;;;;;;;16.85;4.20;;;;;;;;;;5030531;28;20051;-72
2022/01/20 03:56:01;;;;;;;15.40;4.43;;;;;;;;;;5048178;28;20386;-73
2022/01/20 03:58:27;;;;;;;17.05;4.10;;;;;;;;;;5047841;28;20076;-72
2022/01/20 04:00:53;;;;;;;21.10;4.90;;;;;;;;;;5047557;28;20375;-72
2022/01/20 04:03:20;;;;;;;19.25;4.85;;;;;;;;;;5047907;28;20049;-72
2022/01/20 04:05:58;;;;;;;14.80;4.05;;;;;;;;;;5047897;28;20044;-72
2022/01/20 04:08:31;;;;;;;14.85;4.60;;;;;;;;;;5048091;28;20239;-72
2022/01/20 04:10:58;;;;;;;16.35;5.07;;;;;;;;;;5048718;28;20028;-73
2022/01/20 04:13:29;;;;;;;18.67;4.78;;;;;;;;;;5048207;28;20051;-73
2022/01/20 04:15:56;;;;;;;23.48;4.75;;;;;;;;;;5047594;28;20045;-72
2022/01/20 04:18:26;;;;;;;19.27;5.30;;;;;;;;;;5048144;28;20057;-73
2022/01/20 04:20:52;;;;;;;24.17;4.72;;;;;;;;;;5047872;28;20454;-73
2022/01/20 04:23:18;;;;;;;19.02;4.85;;;;;;;;;;5047874;28;20045;-73
2022/01/20 04:25:44;;;;;;;19.38;5.20;;;;;;;;;;5048245;28;20056;-73
2022/01/20 04:28:10;;;;;;;14.85;4.40;;;;;;;;;;5048463;28;20033;-73
2022/01/20 04:30:36;;;;;;;21.35;5.55;;;;;;;;;;5047645;28;20073;-73
2022/01/20 04:33:03;;;;;;;20.38;5.07;;;;;;;;;;5045578;28;20053;-73
2022/01/20 04:35:28;;;;;;;18.15;5.47;;;;;;;;;;5047697;28;20060;-73
2022/01/20 04:37:57;;;;;;;18.38;4.85;;;;;;;;;;5047756;28;20478;-73
2022/01/20 04:40:23;;;;;;;23.30;5.05;;;;;;;;;;5047985;28;20036;-73
2022/01/20 04:42:50;;;;;;;16.13;4.55;;;;;;;;;;5047540;28;20056;-73
2022/01/20 04:45:27;;;;;;;20.40;4.93;;;;;;;;;;5047067;28;20044;-72
2022/01/20 04:48:13;;;;;;;23.33;5.53;;;;;;;;;;5047224;28;20055;-73
2022/01/20 04:58:52;;;;;;;25.02;4.80;;;;;;;;;;5047030;28;20045;-72
2022/01/20 05:01:18;;;;;;;23.15;4.68;;;;;;;;;;5028720;28;20044;-72
2022/01/20 05:03:45;;;;;;;28.42;4.78;;;;;;;;;;5059179;28;20044;-74
2022/01/20 05:06:11;;;;;;;22.80;4.60;;;;;;;;;;5077726;28;20029;-74
2022/01/20 05:08:37;;;;;;;18.10;4.07;;;;;;;;;;5077819;28;20117;-74
2022/01/20 05:11:04;;;;;;;14.95;4.38;;;;;;;;;;5078646;28;20036;-73
2022/01/20 05:13:36;;;;;;;35.83;16.77;;;;;;;;;;5079300;28;20036;-72
2022/01/20 05:16:06;;;;;;;21.10;4.15;;;;;;;;;;5051261;28;20049;-74
2022/01/20 05:18:32;;;;;;;20.20;3.92;;;;;;;;;;5045854;28;20064;-74
2022/01/20 05:20:58;;;;;;;15.73;3.67;;;;;;;;;;5047537;28;20029;-74
2022/01/20 05:23:24;;;;;;;15.00;5.43;;;;;;;;;;5046811;28;20044;-73
2022/01/20 05:25:50;;;;;;;17.85;6.70;;;;;;;;;;5049766;28;20470;-74
2022/01/20 05:28:16;;;;;;;13.75;3.75;;;;;;;;;;5047035;28;20033;-73
2022/01/20 05:30:42;;;;;;;20.23;4.55;;;;;;;;;;5047039;28;20049;-74
2022/01/20 05:38:20;;;;;;;14.68;3.03;;;;;;;;;;5806283;22;20053;-72
2022/01/20 05:40:46;;;;;;;11.10;2.40;;;;;;;;;;5030030;22;20053;-73
2022/01/20 05:43:12;;;;;;;11.98;2.58;;;;;;;;;;5047187;28;20498;-73
2022/01/20 05:45:38;;;;;;;12.30;2.92;;;;;;;;;;5046173;28;20056;-73
2022/01/20 05:48:12;;;;;;;13.32;3.15;;;;;;;;;;5046479;28;20048;-75
2022/01/20 05:50:38;;;;;;;16.27;3.03;;;;;;;;;;5046105;28;20080;-73
2022/01/20 05:53:05;;;;;;;17.73;4.15;;;;;;;;;;5048664;28;20052;-73
2022/01/20 05:55:32;;;;;;;13.48;3.22;;;;;;;;;;5046310;28;20133;-73
2022/01/20 05:57:58;;;;;;;18.65;3.75;;;;;;;;;;5046280;28;20041;-73
2022/01/20 06:00:25;;;;;;;18.33;3.13;;;;;;;;;;5046052;28;20037;-73
2022/01/20 06:05:37;;;;;;;29.38;13.32;;;;;;;;;;5046895;28;20053;-73
2022/01/20 06:08:04;;;;;;;17.98;5.70;;;;;;;;;;5046670;28;20048;-73
2022/01/20 06:10:31;;;;;;;19.95;4.00;;;;;;;;;;5047020;28;20482;-75
2022/01/20 06:12:58;;;;;;;15.18;3.92;;;;;;;;;;5047271;28;20048;-75
2022/01/20 06:15:24;;;;;;;21.58;3.95;;;;;;;;;;5052753;28;20493;-74
2022/01/20 06:17:50;;;;;;;17.27;3.53;;;;;;;;;;5064938;28;20957;-74
2022/01/20 06:20:16;;;;;;;16.55;3.55;;;;;;;;;;5065174;28;20047;-74
2022/01/20 06:22:42;;;;;;;27.92;8.35;;;;;;;;;;5080090;28;20029;-75
2022/01/20 06:25:08;;;;;;;21.70;7.25;;;;;;;;;;5080914;28;20067;-78
2022/01/20 06:27:34;;;;;;;16.42;3.22;;;;;;;;;;5085505;28;20493;-76
2022/01/20 06:30:01;;;;;;;19.38;4.57;;;;;;;;;;5082512;28;20047;-74
2022/01/20 06:32:27;;;;;;;19.98;4.50;;;;;;;;;;5088204;28;20028;-75
2022/01/20 06:34:52;;;;;;;18.95;3.70;;;;;;;;;;5085480;28;20059;-76
2022/01/20 06:37:18;;;;;;;18.27;3.33;;;;;;;;;;5082137;28;20048;-77
2022/01/20 06:39:44;;;;;;;11.35;3.38;;;;;;;;;;5082133;28;20037;-75
2022/01/20 06:42:10;;;;;;;17.13;3.10;;;;;;;;;;5069332;28;20044;-76
2022/01/20 06:44:36;;;;;;;11.05;2.78;;;;;;;;;;5069690;28;20048;-75
2022/01/20 06:47:02;;;;;;;18.30;3.22;;;;;;;;;;5049421;28;20033;-75
2022/01/20 06:49:28;;;;;;;17.75;2.70;;;;;;;;;;5040940;28;20040;-75
2022/01/20 06:51:54;;;;;;;12.63;2.67;;;;;;;;;;5020968;28;20098;-78
2022/01/20 06:54:20;;;;;;;9.07;2.50;;;;;;;;;;5042111;28;20119;-75
2022/01/20 06:56:47;;;;;;;11.15;2.72;;;;;;;;;;5039368;28;20064;-76
2022/01/20 06:59:16;;;;;;;18.25;5.93;;;;;;;;;;5015023;28;20054;-74
2022/01/20 07:01:43;;;;;;;31.52;12.40;;;;;;;;;;5040986;28;20037;-75
2022/01/20 07:04:10;;;;;;;11.27;3.03;;;;;;;;;;5049186;28;20137;-79
2022/01/20 07:06:37;;;;;;;6.57;2.85;;;;;;;;;;5044876;28;20067;-75
2022/01/20 07:09:03;;;;;;;18.23;4.18;;;;;;;;;;5040482;28;20042;-74
2022/01/20 07:11:31;;;;;;;11.43;3.30;;;;;;;;;;5031566;28;20239;-75
2022/01/20 07:13:57;;;;;;;16.52;2.88;;;;;;;;;;5036664;28;20541;-74
2022/01/20 07:16:23;;;;;;;11.73;2.50;;;;;;;;;;5042167;28;20451;-75
2022/01/20 07:18:50;;;;;;;14.90;2.40;;;;;;;;;;5037842;28;20041;-77
2022/01/20 07:21:16;;;;;;;13.90;2.88;;;;;;;;;;5025095;28;20052;-76
2022/01/20 07:23:42;;;;;;;11.05;2.45;;;;;;;;;;5038607;28;20518;-77
2022/01/20 07:26:08;;;;;;;10.20;2.00;;;;;;;;;;5049741;28;20079;-76
2022/01/20 07:28:34;;;;;;;7.80;2.30;;;;;;;;;;5045998;28;20547;-77
2022/01/20 07:31:00;;;;;;;9.27;1.98;;;;;;;;;;5028318;28;20041;-77
2022/01/20 07:33:26;;;;;;;7.68;2.28;;;;;;;;;;5026251;28;20050;-75
2022/01/20 07:35:52;;;;;;;9.85;2.17;;;;;;;;;;5022921;28;20053;-76
2022/01/20 07:38:18;;;;;;;11.15;2.45;;;;;;;;;;5023471;28;20040;-76
2022/01/20 07:40:44;;;;;;;8.60;2.28;;;;;;;;;;5004467;28;20046;-74
2022/01/20 07:43:10;;;;;;;6.30;1.90;;;;;;;;;;5005773;28;20030;-76
2022/01/20 07:45:36;;;;;;;11.45;2.83;;;;;;;;;;5024161;28;20435;-76
2022/01/20 07:48:03;;;;;;;11.60;2.30;;;;;;;;;;5036709;28;20029;-74
2022/01/20 07:50:29;;;;;;;28.83;9.18;;;;;;;;;;5034982;28;20033;-74
2022/01/20 07:52:55;;;;;;;10.38;2.40;;;;;;;;;;5031509;28;20471;-76
2022/01/20 07:55:21;;;;;;;9.43;2.65;;;;;;;;;;5026844;28;20057;-76
2022/01/20 07:57:47;;;;;;;7.80;1.83;;;;;;;;;;5034035;28;20060;-76
2022/01/20 08:00:13;;;;;;;10.05;2.53;;;;;;;;;;5020918;28;20045;-76
2022/01/20 08:02:39;;;;;;;7.20;1.75;;;;;;;;;;5020211;28;20049;-75
2022/01/20 08:05:05;;;;;;;8.18;2.05;;;;;;;;;;5011274;28;20745;-77
2022/01/20 08:07:31;;;;;;;11.40;2.90;;;;;;;;;;5026423;28;20044;-77
2022/01/20 08:09:58;;;;;;;10.10;2.90;;;;;;;;;;5040702;28;20095;-75
2022/01/20 08:12:25;;;;;;;10.32;2.65;;;;;;;;;;5035094;28;20057;-75
2022/01/20 08:14:52;;;;;;;8.88;2.13;;;;;;;;;;5033654;28;20032;-75
2022/01/20 08:17:18;;;;;;;6.72;1.90;;;;;;;;;;5025518;28;20050;-81
2022/01/20 08:19:44;;;;;;;20.23;5.78;;;;;;;;;;5035460;28;20442;-80
2022/01/20 08:22:10;;;;;;;11.23;3.25;;;;;;;;;;5015696;28;20041;-82
2022/01/20 08:24:36;;;;;;;8.68;2.53;;;;;;;;;;5036781;28;20041;-80
2022/01/20 08:27:02;;;;;;;8.85;2.17;;;;;;;;;;5017529;28;20705;-78
2022/01/20 08:29:28;;;;;;;8.25;2.45;;;;;;;;;;5017114;28;20462;-77
2022/01/20 08:31:54;;;;;;;11.85;2.42;;;;;;;;;;5027826;28;20044;-76
2022/01/20 08:34:23;;;;;;;7.53;2.13;;;;;;;;;;5024330;28;20045;-77
2022/01/20 08:36:50;;;;;;;8.73;2.17;;;;;;;;;;5029818;28;20040;-76
2022/01/20 08:41:58;;;;;;;9.32;2.17;;;;;;;;;;5057490;28;20036;-76
2022/01/20 08:44:25;;;;;;;10.07;2.58;;;;;;;;;;5040240;28;20037;-75
2022/01/20 08:46:52;;;;;;;6.20;2.00;;;;;;;;;;5026645;28;20048;-76
2022/01/20 08:49:19;;;;;;;7.25;2.10;;;;;;;;;;5020310;28;20505;-76
2022/01/20 08:51:45;;;;;;;5.28;1.55;;;;;;;;;;5034983;28;20033;-76
2022/01/20 08:54:11;;;;;;;4.32;1.50;;;;;;;;;;5029294;28;20060;-78
2022/01/20 08:56:37;;;;;;;8.40;2.15;;;;;;;;;;5028391;28;20045;-77
2022/01/20 08:59:07;;;;;;;6.13;1.92;;;;;;;;;;5033260;28;20137;-74
2022/01/20 09:01:37;;;;;;;8.07;1.98;;;;;;;;;;5030804;28;20075;-75
2022/01/20 09:04:04;;;;;;;10.82;2.10;;;;;;;;;;5003756;28;20050;-76
2022/01/20 09:06:30;;;;;;;10.82;2.45;;;;;;;;;;5016841;28;20048;-74
2022/01/20 09:08:56;;;;;;;15.70;6.57;;;;;;;;;;5030108;28;20048;-75
2022/01/20 09:11:24;;;;;;;9.10;2.38;;;;;;;;;;5019910;28;20041;-75
2022/01/20 09:16:37;;;;;;;8.13;1.90;;;;;;;;;;5022168;28;20033;-73
2022/01/20 09:19:03;;;;;;;12.02;2.13;;;;;;;;;;5034883;28;20025;-75
2022/01/20 09:21:30;;;;;;;11.38;2.33;;;;;;;;;;5029946;28;20482;-77
2022/01/20 09:23:57;;;;;;;7.88;2.17;;;;;;;;;;5041931;28;20057;-78
2022/01/20 09:26:23;;;;;;;7.00;1.80;;;;;;;;;;5027254;28;20053;-78
2022/01/20 09:28:50;;;;;;;7.15;2.03;;;;;;;;;;5034940;28;20064;-77
2022/01/20 09:31:21;;;;;;;6.60;2.08;;;;;;;;;;5040945;28;20048;-77
2022/01/20 09:33:47;;;;;;;6.47;2.20;;;;;;;;;;5020478;28;20045;-77
2022/01/20 09:36:13;;;;;;;8.63;2.33;;;;;;;;;;5023794;28;20045;-78
2022/01/20 09:38:39;;;;;;;12.23;2.50;;;;;;;;;;5036270;28;20069;-79
2022/01/20 09:41:06;;;;;;;8.32;2.80;;;;;;;;;;5029424;28;20041;-78
2022/01/20 09:43:33;;;;;;;12.00;3.08;;;;;;;;;;5034128;28;20029;-75
2022/01/20 09:45:59;;;;;;;14.20;2.33;;;;;;;;;;5045622;28;20056;-76
2022/01/20 09:48:27;;;;;;;19.02;2.75;;;;;;;;;;5030129;28;20402;-76
2022/01/20 09:50:54;;;;;;;12.52;2.03;;;;;;;;;;5023679;28;20049;-77
2022/01/20 09:53:21;;;;;;;22.48;7.70;;;;;;;;;;5030569;28;20021;-75
2022/01/20 09:55:47;;;;;;;11.05;2.50;;;;;;;;;;5002819;28;20052;-78
2022/01/20 09:58:14;;;;;;;10.07;3.13;;;;;;;;;;5001994;28;20034;-77
2022/01/20 10:00:43;;;;;;;13.52;2.50;;;;;;;;;;5011901;28;20041;-78
2022/01/20 10:03:15;;;;;;;7.95;2.30;;;;;;;;;;5024665;28;20037;-76
2022/01/20 10:05:40;;;;;;;8.32;2.50;;;;;;;;;;5013322;28;20050;-77
2022/01/20 10:08:16;;;;;;;10.18;2.15;;;;;;;;;;4998788;28;20054;-79
2022/01/20 10:10:45;;;;;;;9.18;2.13;;;;;;;;;;5037739;28;20017;-77
2022/01/20 10:13:13;;;;;;;8.13;2.03;;;;;;;;;;5035884;28;20057;-78
2022/01/20 10:15:39;;;;;;;9.35;2.35;;;;;;;;;;5042717;28;20583;-77
2022/01/20 10:18:14;;;;;;;11.95;2.40;;;;;;;;;;5022822;28;20049;-77
2022/01/20 10:20:57;;;;;;;8.82;2.17;;;;;;;;;;5020010;28;20038;-77
2022/01/20 10:23:44;;;;;;;10.95;2.55;;;;;;;;;;5023548;28;20530;-78
2022/01/20 10:26:22;;;;;;;7.47;1.80;;;;;;;;;;5042239;28;20033;-78
2022/01/20 10:28:52;;;;;;;8.32;2.10;;;;;;;;;;5023449;28;20040;-78
2022/01/20 10:31:30;;;;;;;12.02;2.55;;;;;;;;;;5032791;28;20041;-78
2022/01/20 10:33:56;;;;;;;10.27;2.60;;;;;;;;;;5050035;28;20048;-78
2022/01/20 10:36:23;;;;;;;9.27;3.13;;;;;;;;;;5043098;28;20033;-78
2022/01/20 10:38:53;;;;;;;7.28;2.30;;;;;;;;;;5054252;28;20045;-78
2022/01/20 10:41:40;;;;;;;8.57;2.15;;;;;;;;;;5035603;28;20050;-77
2022/01/20 10:44:11;;;;;;;8.98;2.10;;;;;;;;;;5042661;28;20045;-76
2022/01/20 10:46:45;;;;;;;14.82;3.17;;;;;;;;;;5043929;28;20037;-76
2022/01/20 10:49:11;;;;;;;10.75;2.15;;;;;;;;;;5014008;28;20037;-76
2022/01/20 10:51:38;;;;;;;9.30;2.35;;;;;;;;;;5031533;28;20033;-75
2022/01/20 10:54:07;;;;;;;8.77;2.60;;;;;;;;;;5016134;28;20089;-75
2022/01/20 10:56:54;;;;;;;8.32;2.55;;;;;;;;;;5026622;28;20044;-75
2022/01/20 10:59:21;;;;;;;12.68;2.53;;;;;;;;;;5018248;28;20511;-75
2022/01/20 11:02:17;;;;;;;5.82;1.98;;;;;;;;;;5015419;28;20060;-76
2022/01/20 11:04:44;;;;;;;8.73;2.50;;;;;;;;;;4973005;28;20053;-76
2022/01/20 11:07:10;;;;;;;20.05;7.55;;;;;;;;;;5039405;28;20064;-76
2022/01/20 11:09:42;;;;;;;11.57;2.80;;;;;;;;;;5019293;28;20488;-76
2022/01/20 11:12:10;;;;;;;8.70;2.30;;;;;;;;;;5038624;28;20065;-76
2022/01/20 11:14:36;;;;;;;10.25;2.60;;;;;;;;;;5025186;28;20520;-76
2022/01/20 11:17:04;;;;;;;9.10;2.30;;;;;;;;;;5025487;28;20163;-76
2022/01/20 11:19:38;;;;;;;10.02;2.17;;;;;;;;;;5035457;28;20050;-76
2022/01/20 11:22:09;;;;;;;9.45;2.28;;;;;;;;;;5023998;28;20060;-75
2022/01/20 11:24:35;;;;;;;9.98;2.30;;;;;;;;;;5038722;28;20036;-75
2022/01/20 11:27:03;;;;;;;9.10;2.28;;;;;;;;;;5046006;28;20037;-76
2022/01/20 11:29:46;;;;;;;8.68;2.30;;;;;;;;;;5032605;28;20417;-77
2022/01/20 11:32:23;;;;;;;10.90;2.25;;;;;;;;;;5033328;28;20394;-74
2022/01/20 11:35:08;;;;;;;9.70;2.20;;;;;;;;;;5028351;28;20053;-75
2022/01/20 11:37:40;;;;;;;7.97;2.30;;;;;;;;;;5036998;28;20360;-76
2022/01/20 11:40:10;;;;;;;10.68;2.55;;;;;;;;;;5032099;28;20033;-76
2022/01/20 11:42:36;;;;;;;7.63;2.03;;;;;;;;;;5030849;28;20029;-76
2022/01/20 11:45:25;;;;;;;8.55;2.40;;;;;;;;;;5029122;28;20411;-76
2022/01/20 11:47:51;;;;;;;10.70;2.30;;;;;;;;;;5025163;28;20037;-76
2022/01/20 11:50:19;;;;;;;5.00;1.92;;;;;;;;;;5030314;28;20498;-76
2022/01/20 11:52:45;;;;;;;11.02;3.13;;;;;;;;;;5030136;28;20048;-76
2022/01/20 11:55:14;;;;;;;9.90;2.22;;;;;;;;;;5020933;28;20038;-76
2022/01/20 11:57:40;;;;;;;10.20;2.20;;;;;;;;;;5011214;28;20439;-75
2022/01/20 12:00:28;;;;;;;16.23;5.05;;;;;;;;;;5026670;28;20343;-74
2022/01/20 12:02:54;;;;;;;12.10;2.88;;;;;;;;;;5046581;28;20040;-74
2022/01/20 12:05:27;;;;;;;12.05;2.67;;;;;;;;;;5047262;28;20152;-74
2022/01/20 12:08:11;;;;;;;10.63;3.03;;;;;;;;;;5046549;28;20032;-74
2022/01/20 12:10:39;;;;;;;12.10;2.65;;;;;;;;;;5046608;28;20056;-73
2022/01/20 12:13:10;;;;;;;10.02;2.40;;;;;;;;;;5048349;28;20033;-74
2022/01/20 12:15:46;;;;;;;;;;;;;;;;;;5048926;28;20041;-74
2022/01/20 12:18:13;;;;;;;6.90;2.83;;;;;;;;;;5046489;28;20393;-74
2022/01/20 12:20:39;;;;;;;12.10;2.65;;;;;;;;;;5046324;28;20044;-75
2022/01/20 12:23:08;;;;;;;9.48;2.60;;;;;;;;;;5046591;28;20048;-75
2022/01/20 12:25:35;;;;;;;10.10;2.75;;;;;;;;;;5047269;28;20033;-74
2022/01/20 12:28:13;;;;;;;11.77;2.42;;;;;;;;;;5046114;28;20506;-74
2022/01/20 12:30:47;;;;;;;9.25;2.67;;;;;;;;;;5046464;28;20049;-73
2022/01/20 12:33:15;;;;;;;11.00;2.65;;;;;;;;;;5048296;28;20044;-72
2022/01/20 12:35:42;;;;;;;10.30;2.47;;;;;;;;;;5048125;28;20060;-74
2022/01/20 12:38:22;;;;;;;10.00;3.75;;;;;;;;;;5047359;28;20502;-73
2022/01/20 12:41:00;;;;;;;11.73;2.70;;;;;;;;;;5048029;28;20235;-73
2022/01/20 12:43:45;;;;;;;6.78;2.60;;;;;;;;;;5048393;28;20127;-74
2022/01/20 12:46:13;;;;;;;9.25;2.55;;;;;;;;;;5047493;28;20505;-73
2022/01/20 12:48:54;;;;;;;8.65;2.92;;;;;;;;;;5048443;28;20043;-74
2022/01/20 12:51:34;;;;;;;10.35;2.78;;;;;;;;;;5047638;28;20053;-74
2022/01/20 12:54:12;;;;;;;7.30;2.00;;;;;;;;;;5048352;28;20059;-74
2022/01/20 12:56:44;;;;;;;8.60;2.03;;;;;;;;;;5047439;28;20060;-74
2022/01/20 12:59:12;;;;;;;8.25;2.03;;;;;;;;;;5047894;28;20529;-74
2022/01/20 13:01:44;;;;;;;8.77;1.60;;;;;;;;;;5047986;28;20041;-74
2022/01/20 13:04:16;;;;;;;8.82;1.98;;;;;;;;;;5047727;28;20045;-74
2022/01/20 13:06:45;;;;;;;5.32;1.80;;;;;;;;;;5046857;28;20045;-75
2022/01/20 13:09:13;;;;;;;3.35;1.10;;;;;;;;;;5047622;28;20045;-75
2022/01/20 13:11:44;;;;;;;5.75;1.25;;;;;;;;;;5029136;28;20041;-75
2022/01/20 13:14:11;;;;;;;8.40;2.13;;;;;;;;;;5047434;28;20068;-75
2022/01/20 13:16:58;;;;;;;4.28;1.10;;;;;;;;;;5047850;28;20037;-75
2022/01/20 13:19:39;;;;;;;7.20;1.20;;;;;;;;;;5047258;28;20052;-74
2022/01/20 13:22:07;;;;;;;;;;;;;;;;;;5048322;28;20053;-74
2022/01/20 13:24:35;;;;;;;9.07;2.38;;;;;;;;;;5047671;28;19920;-74
2022/01/20 13:27:05;;;;;;;5.25;1.10;;;;;;;;;;5047280;28;20045;-75
2022/01/20 13:29:47;;;;;;;6.68;1.48;;;;;;;;;;5048377;28;20048;-75
2022/01/20 13:32:13;;;;;;;6.75;1.50;;;;;;;;;;5041787;28;20041;-74
2022/01/20 13:34:40;;;;;;;7.13;1.60;;;;;;;;;;5028177;28;20045;-74
2022/01/20 13:37:13;;;;;;;6.32;1.35;;;;;;;;;;5041821;28;20052;-74
2022/01/20 13:39:43;;;;;;;11.45;1.70;;;;;;;;;;5046763;28;20048;-74
2022/01/20 13:42:46;;;;;;;3.85;1.42;;;;;;;;;;5045774;28;20537;-74
2022/01/20 13:45:15;;;;;;;6.20;1.67;;;;;;;;;;5044246;28;20060;-74
2022/01/20 13:47:57;;;;;;;7.70;1.83;;;;;;;;;;5044600;28;20494;-73
2022/01/20 13:50:31;;;;;;;5.55;1.90;;;;;;;;;;5045139;28;20039;-73
2022/01/20 13:53:01;;;;;;;5.60;1.75;;;;;;;;;;5044700;28;20052;-74
2022/01/20 13:55:30;;;;;;;6.55;2.20;;;;;;;;;;5045118;28;20037;-74
2022/01/20 13:57:59;;;;;;;9.55;2.38;;;;;;;;;;5043707;28;20052;-75
2022/01/20 14:00:28;;;;;;;11.38;2.40;;;;;;;;;;5043871;28;20454;-74
2022/01/20 14:02:54;;;;;;;5.82;1.77;;;;;;;;;;5044498;28;20052;-74
2022/01/20 14:05:33;;;;;;;5.43;1.60;;;;;;;;;;5043896;28;20041;-73
2022/01/20 14:08:06;;;;;;;5.82;2.03;;;;;;;;;;5024204;28;20042;-74
2022/01/20 14:10:32;;;;;;;7.00;1.90;;;;;;;;;;5024190;28;20660;-74
2022/01/20 14:12:58;;;;;;;10.30;2.10;;;;;;;;;;5037701;28;20053;-74
2022/01/20 14:15:25;;;;;;;11.68;2.58;;;;;;;;;;5044517;28;20542;-74
2022/01/20 14:17:54;;;;;;;9.63;2.17;;;;;;;;;;5021425;28;20054;-74
2022/01/20 14:20:23;;;;;;;9.15;2.03;;;;;;;;;;4987930;28;20073;-74
2022/01/20 14:22:51;;;;;;;9.05;2.45;;;;;;;;;;5022741;28;20052;-74
2022/01/20 14:25:22;;;;;;;9.60;2.75;;;;;;;;;;5030491;28;20056;-74
2022/01/20 14:27:51;;;;;;;9.82;2.35;;;;;;;;;;5040968;28;20475;-74
2022/01/20 14:30:17;;;;;;;8.00;1.90;;;;;;;;;;5012900;28;20057;-74
2022/01/20 14:37:55;;;;;;;14.93;3.88;;;;;;;;;;5606647;22;20060;-74
2022/01/20 14:40:22;;;;;;;7.28;1.77;;;;;;;;;;5047728;28;20040;-75
2022/01/20 14:42:50;;;;;;;10.82;2.33;;;;;;;;;;5056764;28;20032;-74
2022/01/20 14:45:18;;;;;;;7.00;2.15;;;;;;;;;;5030546;28;20041;-74
2022/01/20 14:47:47;;;;;;;10.32;2.05;;;;;;;;;;5026357;28;20037;-74
2022/01/20 14:50:13;;;;;;;15.07;4.55;;;;;;;;;;5032147;28;20056;-74
2022/01/20 14:52:39;;;;;;;10.32;2.40;;;;;;;;;;5043545;28;20470;-74
2022/01/20 14:55:07;;;;;;;10.40;2.10;;;;;;;;;;5042478;28;20044;-74
2022/01/20 14:57:34;;;;;;;11.38;2.92;;;;;;;;;;5056290;28;20067;-74
2022/01/20 15:00:00;;;;;;;12.27;2.45;;;;;;;;;;5050259;28;20036;-74
2022/01/20 15:02:26;;;;;;;10.23;2.28;;;;;;;;;;5068618;28;20032;-74
2022/01/20 15:04:52;;;;;;;13.32;2.47;;;;;;;;;;5055832;28;20060;-74
2022/01/20 15:07:19;;;;;;;10.38;2.50;;;;;;;;;;5051518;28;20035;-74
2022/01/20 15:09:47;;;;;;;9.13;2.03;;;;;;;;;;5048325;28;20471;-74
2022/01/20 15:12:13;;;;;;;10.88;1.98;;;;;;;;;;5045213;28;20052;-74
2022/01/20 15:14:39;;;;;;;12.63;2.13;;;;;;;;;;5054390;28;20041;-74
2022/01/20 15:17:06;;;;;;;9.48;2.08;;;;;;;;;;5061111;28;20115;-74
2022/01/20 15:19:33;;;;;;;11.38;2.10;;;;;;;;;;5065398;28;20541;-75
2022/01/20 15:22:00;;;;;;;11.65;2.33;;;;;;;;;;5052600;28;20462;-75
2022/01/20 15:24:28;;;;;;;13.57;2.67;;;;;;;;;;5046799;28;20502;-75
2022/01/20 15:26:54;;;;;;;9.45;2.13;;;;;;;;;;5054109;28;20140;-75
2022/01/20 15:29:20;;;;;;;15.73;2.70;;;;;;;;;;5049922;28;20120;-76
2022/01/20 15:31:46;;;;;;;11.88;2.17;;;;;;;;;;5046853;28;20139;-74
2022/01/20 15:34:14;;;;;;;8.02;2.33;;;;;;;;;;5047289;28;20041;-74
2022/01/20 15:36:45;;;;;;;14.88;2.65;;;;;;;;;;5047137;28;20063;-73
2022/01/20 15:39:12;;;;;;;11.02;2.60;;;;;;;;;;5046075;28;20532;-74
2022/01/20 15:41:39;;;;;;;6.88;2.33;;;;;;;;;;5047342;28;20056;-73
2022/01/20 15:44:06;;;;;;;14.82;2.83;;;;;;;;;;5047253;28;20390;-75
2022/01/20 15:46:34;;;;;;;8.15;2.10;;;;;;;;;;5049618;28;20029;-73
2022/01/20 15:49:00;;;;;;;7.28;2.40;;;;;;;;;;5027508;28;20390;-73
2022/01/20 15:51:25;;;;;;;7.80;2.53;;;;;;;;;;5037216;28;20086;-74
2022/01/20 15:53:51;;;;;;;7.80;2.60;;;;;;;;;;5048738;28;20680;-75
2022/01/20 15:56:17;;;;;;;10.27;2.72;;;;;;;;;;5048538;28;20033;-74
2022/01/20 15:58:43;;;;;;;11.85;2.97;;;;;;;;;;5047551;28;20508;-75
2022/01/20 16:01:09;;;;;;;9.07;2.40;;;;;;;;;;5043079;28;20118;-74